Latest Weather Observations for Warragul (Nilma North)

IDV60801

Issued at 11:34 am EDT Tuesday 6 December 2016 (issued every 30 minutes, with the page automatically refreshed every 10 minutes)

About weather observations | Map of weather stations | Latest weather observations for VIC | Other Formats
Station Details ID: 085313 Name: NILMA NORTH (WARRAGUL) Lat: -38.13 Lon: 145.99 Height: 134.11 m
Data from the previous 72 hours. | See also: Recent months for locations in Victoria
Date/Time
EDT
Temp
°C
App
Temp
°C
Dew
Point
°C
Rel
Hum
%
Delta-T
°C
Wind Press
QNH
hPa
Press
MSL
hPa
Rain since
9am
mm
Dir  Spd
km/h
Gust
km/h
Spd
kts
Gust
kts
06/11:30am 16.2 14.9 10.1 67 3.2 W 7 17 4 9 1013.7 1013.4 0.0
06/11:00am 16.1 14.8 9.8 66 3.3 W 7 15 4 8 1013.7 1013.4 0.0
06/10:30am 15.6 14.4 9.7 68 3.1 W 6 11 3 6 1014.2 1013.9 0.0
06/10:00am 14.9 14.3 10.3 74 2.4 W 4 7 2 4 1013.9 1013.6 0.0
06/09:30am 14.0 13.1 10.6 80 1.8 NW 6 9 3 5 1014.1 1013.8 0.0
06/09:00am 14.0 13.6 11.2 83 1.5 WNW 4 7 2 4 1014.1 1013.8 0.0
06/08:30am 13.5 13.0 10.9 84 1.4 NNW 4 7 2 4 1013.8 1013.5 0.0
06/08:00am 13.1 12.6 10.8 86 1.2 NW 4 6 2 3 1013.9 1013.6 0.0
06/07:30am 12.7 11.6 10.8 88 1.0 WNW 7 9 4 5 1014.0 1013.7 0.0
06/07:00am 12.6 11.8 11.0 90 0.8 W 6 9 3 5 1013.8 1013.5 0.0
06/06:30am 12.6 11.8 11.0 90 0.8 W 6 9 3 5 1012.7 1012.4 0.0
06/06:00am 12.7 12.3 11.1 90 0.8 W 4 6 2 3 1012.4 1012.1 0.0
06/05:30am 12.7 12.3 11.1 90 0.8 WNW 4 6 2 3 1012.0 1011.7 0.0
06/05:00am 12.8 12.8 11.2 90 0.8 WNW 2 6 1 3 1011.6 1011.3 0.0
06/04:30am 12.8 12.8 11.2 90 0.8 WNW 2 4 1 2 1011.3 1011.0 0.0
06/04:00am 12.8 12.9 11.4 91 0.7 NW 2 4 1 2 1011.1 1010.8 0.0
06/03:30am 12.9 13.3 11.1 89 1.0 CALM 0 0 0 0 1011.1 1010.8 0.0
06/03:00am 12.9 13.3 11.1 89 1.0 CALM 0 0 0 0 1011.6 1011.3 0.0
06/02:30am 12.9 12.9 11.1 89 1.0 W 2 4 1 2 1012.2 1011.9 0.0
06/02:00am 12.9 13.3 11.1 89 1.0 CALM 0 0 0 0 1012.5 1012.2 0.0
06/01:30am 12.9 13.2 11.0 88 1.0 CALM 0 0 0 0 1012.6 1012.3 0.0
06/01:00am 12.9 13.2 10.8 87 1.1 CALM 0 0 0 0 1012.6 1012.3 0.0
06/12:30am 12.9 13.2 11.0 88 1.0 CALM 0 2 0 1 1012.8 1012.5 0.0
06/12:00am 13.1 13.5 11.2 88 1.0 CALM 0 0 0 0 1013.2 1013.0 0.0
 
Date/Time
EDT
Temp
°C
App
Temp
°C
Dew
Point
°C
Rel
Hum
%
Delta-T
°C
Wind Press
QNH
hPa
Press
MSL
hPa
Rain since
9am
mm
Dir  Spd
km/h
Gust
km/h
Spd
kts
Gust
kts
05/11:30pm 13.0 13.3 10.9 87 1.1 CALM 0 6 0 3 1014.2 1013.9 0.0
05/11:00pm 13.0 12.8 10.5 85 1.3 W 2 6 1 3 1014.5 1014.2 0.0
05/10:30pm 13.6 13.0 10.4 81 1.7 WNW 4 7 2 4 1015.0 1014.7 0.0
05/10:00pm 13.8 13.7 10.8 82 1.6 WSW 2 4 1 2 1014.7 1014.4 0.0
05/09:30pm 13.5 13.0 10.7 83 1.5 W 4 6 2 3 1014.5 1014.2 0.0
05/09:00pm 14.2 14.1 10.8 80 1.8 SW 2 4 1 2 1013.4 1013.2 0.0
05/08:30pm 14.9 14.4 10.9 77 2.1 SW 4 6 2 3 1013.6 1013.3 0.0
05/08:00pm 16.0 15.4 10.5 70 2.9 WSW 4 7 2 4 1013.4 1013.2 0.0
05/07:30pm 16.5 15.8 10.1 66 3.4 SSW 4 7 2 4 1013.3 1013.1 0.0
05/07:00pm 17.1 16.1 10.2 64 3.7 SW 6 9 3 5 1012.9 1012.6 0.0
05/06:30pm 17.5 16.4 10.1 62 3.9 SW 6 11 3 6 1012.5 1012.2 0.0
05/06:00pm 17.5 16.2 9.9 61 4.0 SSW 7 13 4 7 1012.2 1011.9 0.0
05/05:30pm 18.4 16.8 10.3 59 4.4 WSW 9 17 5 9 1012.2 1011.9 0.0
05/05:00pm 19.1 17.2 10.4 57 4.7 WSW 11 19 6 10 1012.2 1011.9 0.0
05/04:30pm 19.6 17.6 10.3 55 5.0 WSW 11 19 6 10 1012.4 1012.1 0.0
05/04:00pm 20.0 18.2 10.7 55 5.1 W 11 19 6 10 1011.8 1011.5 0.0
05/03:30pm 19.9 19.2 11.9 60 4.5 WNW 7 15 4 8 1011.7 1011.4 0.0
05/03:00pm 19.4 18.0 10.9 58 4.7 WNW 9 20 5 11 1012.0 1011.7 0.0
05/02:30pm 18.5 16.8 11.1 62 4.0 WNW 11 20 6 11 1012.4 1012.1 0.0
05/02:00pm 18.3 16.7 11.4 64 3.8 W 11 22 6 12 1012.2 1011.9 0.0
05/01:30pm 16.9 14.6 10.5 66 3.4 W 13 22 7 12 1012.3 1012.0 0.0
05/01:00pm 16.9 14.2 10.3 65 3.5 WSW 15 22 8 12 1012.2 1011.9 0.0
05/12:30pm 16.4 14.1 10.5 68 3.2 WSW 13 26 7 14 1012.2 1011.9 0.0
05/12:00pm 16.2 13.2 10.7 70 2.9 W 17 26 9 14 1012.2 1011.9 0.0
05/11:30am 15.8 13.0 9.9 68 3.1 WSW 15 28 8 15 1012.2 1011.9 0.0
05/11:00am 15.8 13.2 10.6 71 2.8 W 15 22 8 12 1011.9 1011.6 0.0
05/10:30am 15.6 13.1 11.2 75 2.4 WSW 15 22 8 12 1011.8 1011.5 0.0
05/10:00am 15.1 13.5 11.5 79 1.9 WSW 11 19 6 10 1011.8 1011.5 0.0
05/09:30am 14.8 13.3 11.9 83 1.6 WSW 11 19 6 10 1011.7 1011.4 0.0
05/09:00am 14.9 13.1 12.2 84 1.5 W 13 24 7 13 1011.3 1011.0 2.0
05/08:30am 14.6 13.5 11.9 84 1.5 WSW 9 15 5 8 1010.9 1010.6 2.0
05/08:00am 14.4 12.7 12.4 88 1.1 WSW 13 19 7 10 1010.5 1010.2 2.0
05/07:30am 16.1 14.4 11.1 72 2.7 WSW 11 20 6 11 1009.9 1009.6 2.0
05/07:00am 16.4 14.9 12.0 75 2.4 W 11 22 6 12 1008.7 1008.4 2.0
05/06:30am 16.8 14.8 13.9 83 1.7 WSW 17 33 9 18 1007.7 1007.4 2.0
05/06:12am 18.0 15.7 14.1 78 2.2 WSW 19 35 10 19 1007.0 1006.7 2.0
05/06:00am 23.0 19.7 15.1 61 4.7 W 26 39 14 21 1005.6 1005.3 2.0
05/05:30am 24.0 22.1 15.2 58 5.3 W 19 30 10 16 1004.8 1004.5 2.0
05/05:00am 23.9 23.2 15.4 59 5.2 WNW 13 28 7 15 1004.2 1003.9 2.0
05/04:30am 24.1 24.4 15.1 57 5.4 WNW 7 13 4 7 1003.6 1003.3 2.0
05/04:00am 23.8 24.2 15.3 59 5.1 NW 7 19 4 10 1003.6 1003.3 2.0
05/03:30am 22.9 24.0 15.5 63 4.5 NW 4 6 2 3 1003.5 1003.2 2.0
05/03:00am 24.1 23.3 15.1 57 5.4 NW 13 24 7 13 1003.4 1003.1 2.0
05/02:30am 23.9 23.1 15.1 58 5.3 NW 13 30 7 16 1003.2 1002.9 1.8
05/02:00am 23.7 22.6 15.2 59 5.1 NW 15 28 8 15 1003.3 1003.0 1.8
05/01:30am 23.4 22.4 15.5 61 4.8 NNW 15 28 8 15 1003.6 1003.3 1.8
05/01:00am 23.0 21.6 15.6 63 4.5 NNW 17 28 9 15 1004.1 1003.8 1.8
05/12:30am 22.4 21.6 16.2 68 3.8 N 15 32 8 17 1004.5 1004.2 1.8
05/12:00am 22.3 22.7 16.3 69 3.7 N 9 19 5 10 1005.0 1004.7 1.6
 
Date/Time
EDT
Temp
°C
App
Temp
°C
Dew
Point
°C
Rel
Hum
%
Delta-T
°C
Wind Press
QNH
hPa
Press
MSL
hPa
Rain since
9am
mm
Dir  Spd
km/h
Gust
km/h
Spd
kts
Gust
kts
04/11:30pm 19.4 21.0 16.8 85 1.6 ENE 4 7 2 4 1005.5 1005.2 1.6
04/11:00pm 19.4 20.7 17.2 87 1.3 E 6 9 3 5 1005.8 1005.4 1.6
04/10:30pm 19.7 21.5 17.3 86 1.5 NE 4 6 2 3 1006.4 1006.0 1.6
04/10:00pm 19.6 20.9 17.0 85 1.6 NNE 6 7 3 4 1006.8 1006.5 1.6
04/09:30pm 19.6 21.6 17.0 85 1.6 N 2 6 1 3 1007.2 1006.9 1.6
04/09:00pm 20.5 21.4 16.5 78 2.4 N 7 13 4 7 1007.8 1007.5 1.0
04/08:30pm 21.2 22.1 16.2 73 3.0 NNW 6 9 3 5 1007.8 1007.5 0.8
04/08:00pm 21.5 22.6 16.5 73 3.1 NW 6 9 3 5 1007.9 1007.6 0.8
04/07:30pm 23.6 22.8 15.1 59 5.1 WNW 13 22 7 12 1008.4 1008.1 0.2
04/07:00pm 25.3 23.4 14.1 50 6.7 NW 17 39 9 21 1007.7 1007.4 0.0
04/06:30pm 26.5 26.1 15.2 49 6.9 NW 11 35 6 19 1006.6 1006.2 0.0
04/06:00pm 25.6 26.3 17.0 59 5.4 ENE 9 15 5 8 1005.5 1005.2 0.0
04/05:30pm 26.5 28.1 17.8 58 5.5 E 6 11 3 6 1005.6 1005.3 0.0
04/05:00pm 27.0 28.8 17.5 56 6.0 SE 4 7 2 4 1006.3 1005.9 0.0
04/04:30pm 27.3 29.0 18.0 56 5.9 SE 6 9 3 5 1006.4 1006.0 0.0
04/04:00pm 27.6 29.1 17.7 54 6.3 SE 6 7 3 4 1007.0 1006.7 0.0
04/03:30pm 27.7 29.2 17.5 53 6.5 ESE 6 9 3 5 1007.0 1006.7 0.0
04/03:00pm 27.4 29.1 18.1 57 5.9 ESE 6 9 3 5 1007.4 1007.1 0.0
04/02:30pm 27.3 28.4 17.2 54 6.4 ESE 7 11 4 6 1007.7 1007.4 0.0
04/02:00pm 26.7 27.8 17.2 56 6.0 E 7 11 4 6 1008.0 1007.7 0.0
04/01:30pm 25.5 26.5 16.9 59 5.4 E 7 11 4 6 1008.5 1008.2 0.0
04/01:00pm 24.6 24.8 15.8 58 5.4 ESE 9 13 5 7 1008.7 1008.4 0.0
04/12:30pm 24.3 24.8 16.6 62 4.8 ESE 9 15 5 8 1008.9 1008.6 0.0
04/12:00pm 24.0 24.1 16.5 63 4.6 E 11 15 6 8 1009.3 1009.0 0.0
04/11:30am 22.4 22.3 16.0 67 3.9 ESE 11 17 6 9 1009.7 1009.4 0.0
04/11:00am 21.1 20.8 16.5 75 2.8 E 13 20 7 11 1010.0 1009.7 0.0
04/10:30am 19.5 18.4 15.4 77 2.4 E 15 20 8 11 1010.5 1010.2 0.0
04/10:00am 18.1 16.1 14.0 77 2.4 E 17 24 9 13 1010.7 1010.4 0.0
04/09:30am 17.0 15.0 13.9 82 1.8 ESE 17 24 9 13 1011.1 1010.8 0.0
04/09:00am 16.1 14.5 13.8 86 1.3 E 15 22 8 12 1011.3 1011.0 0.0
04/08:30am 14.8 12.6 13.2 90 0.9 E 17 28 9 15 1011.3 1011.0 0.0
04/08:00am 14.0 11.2 12.7 92 0.7 E 19 28 10 15 1011.6 1011.3 0.0
04/07:30am 13.3 10.9 12.5 95 0.4 E 17 24 9 13 1011.8 1011.5 0.0
04/07:00am 13.0 11.3 12.4 96 0.3 E 13 24 7 13 1011.7 1011.4 0.0
04/06:30am 12.7 9.8 12.2 97 0.3 E 19 28 10 15 1011.8 1011.5 0.0
04/06:00am 12.4 9.8 11.9 97 0.3 E 17 24 9 13 1011.8 1011.5 0.0
04/05:30am 11.9 9.8 11.3 96 0.3 E 13 22 7 12 1012.0 1011.7 0.0
04/05:00am 11.5 9.7 10.9 96 0.3 E 11 20 6 11 1012.0 1011.7 0.0
04/04:30am 11.4 9.1 10.6 95 0.4 E 13 22 7 12 1011.8 1011.5 0.0
04/04:00am 11.3 9.0 10.5 95 0.4 E 13 20 7 11 1011.7 1011.4 0.0
04/03:30am 11.3 9.0 10.4 94 0.5 E 13 24 7 13 1011.9 1011.6 0.0
04/03:00am 11.4 8.7 10.5 94 0.5 E 15 24 8 13 1012.1 1011.8 0.0
04/02:30am 11.5 9.2 10.4 93 0.6 E 13 22 7 12 1012.5 1012.2 0.0
04/02:00am 11.6 8.5 10.2 91 0.7 E 17 26 9 14 1012.8 1012.5 0.0
04/01:30am 11.6 8.4 10.0 90 0.8 E 17 28 9 15 1013.3 1013.1 0.0
04/01:00am 11.7 8.5 9.9 89 0.9 E 17 26 9 14 1013.7 1013.4 0.0
04/12:30am 11.6 8.3 9.5 87 1.1 E 17 24 9 13 1014.1 1013.8 0.0
04/12:00am 12.2 8.5 9.6 84 1.3 ESE 19 28 10 15 1014.5 1014.2 0.0
 
Date/Time
EDT
Temp
°C
App
Temp
°C
Dew
Point
°C
Rel
Hum
%
Delta-T
°C
Wind Press
QNH
hPa
Press
MSL
hPa
Rain since
9am
mm
Dir  Spd
km/h
Gust
km/h
Spd
kts
Gust
kts
03/11:30pm 12.5 8.9 9.7 83 1.4 E 19 30 10 16 1014.7 1014.4 0.0
03/11:00pm 12.8 9.6 9.8 82 1.5 E 17 26 9 14 1014.9 1014.6 0.0
03/10:30pm 13.4 10.3 10.2 81 1.7 E 17 24 9 13 1014.9 1014.6 0.0
03/10:00pm 14.2 11.9 10.6 79 1.9 E 13 20 7 11 1015.0 1014.7 0.0
03/09:30pm 15.1 12.2 10.9 76 2.2 E 17 26 9 14 1014.8 1014.5 0.0
03/09:00pm 15.8 13.3 11.0 73 2.6 E 15 24 8 13 1014.7 1014.4 0.0
03/08:30pm 16.9 14.5 11.4 70 3.0 ESE 15 24 8 13 1014.7 1014.4 0.0
03/08:00pm 18.2 15.9 11.7 66 3.6 ESE 15 26 8 14 1014.6 1014.3 0.0
03/07:30pm 19.5 18.1 12.3 63 4.0 S 11 15 6 8 1014.5 1014.2 0.0
03/07:00pm 20.9 19.2 11.3 54 5.3 S 11 17 6 9 1014.3 1014.0 0.0
03/06:30pm 23.0 22.1 9.4 42 7.4 SW 4 7 2 4 1013.9 1013.6 0.0
03/06:00pm 22.8 21.2 7.8 38 7.9 SW 6 11 3 6 1013.7 1013.4 0.0
03/05:30pm 23.1 20.9 8.0 38 8.0 W 9 15 5 8 1013.9 1013.6 0.0
03/05:00pm 23.4 21.7 8.3 38 8.1 W 7 13 4 7 1014.0 1013.7 0.0
03/04:30pm 22.9 20.5 8.6 40 7.7 W 11 24 6 13 1014.3 1014.0 0.0
03/04:00pm 22.8 21.3 9.2 42 7.3 SW 7 13 4 7 1014.3 1014.0 0.0
03/03:30pm 22.5 21.6 10.6 47 6.6 SW 6 11 3 6 1014.2 1013.9 0.0
03/03:00pm 22.3 21.8 10.8 48 6.4 WNW 4 7 2 4 1014.5 1014.2 0.0
03/02:30pm 21.4 20.4 10.3 49 6.1 S 6 15 3 8 1014.7 1014.4 0.0
03/02:00pm 21.2 20.4 11.2 53 5.6 S 6 9 3 5 1015.0 1014.7 0.0
03/01:30pm 20.3 19.2 9.8 51 5.7 SW 6 9 3 5 1015.2 1014.9 0.0
03/01:00pm 19.5 18.1 8.8 50 5.6 S 6 11 3 6 1015.6 1015.3 0.0
03/12:30pm 19.0 18.2 9.5 54 5.1 S 4 7 2 4 1015.8 1015.5 0.0
03/12:00pm 18.5 18.0 10.6 60 4.3 S 4 7 2 4 1016.0 1015.7 0.0

Other Formats:

Comma delimited format used in spreadsheet applications
http://www.bom.gov.au/fwo/IDV60801/IDV60801.99806.axf

JavaScript Object Notation format (JSON) in row-major order
http://www.bom.gov.au/fwo/IDV60801/IDV60801.99806.json